White Bluff, TN (37187)

11:42 AM CDT on July 27, 2016 (GMT -0500)
The Chapel in the Woods Weather | | Change Station

Elev 827 ft 36.11 °N, 87.21 °W | Updated 26 seconds ago

Scattered Clouds
Scattered Clouds
88.7 °F
Feels Like 103 °F
N
2.2
Wind Variable Wind from SSW
Gusts 6.3 mph

Today
High -- | Low -- °F
--% Chance of Precip.
Yesterday
High -- | Low -- °F
Precip. -- in
Pressure 30.00 in
Visibility 10.0 miles
Clouds Few 4000 ft
Scattered Clouds 6000 ft
Scattered Clouds 10000 ft
Scattered Clouds 25000 ft
Heat Index 103 °F
Dew Point 78 °F
Humidity 71%
Rainfall 0.00 in
Snow Depth Not available.
5:52 AM 7:57 PM
Last Quarter, 42% visible
METAR KBNA 271553Z 21003KT 10SM FEW040 SCT060 SCT100 SCT250 31/23 A3002 RMK AO2 SLP157 T03060228
Pressure 30.00 in
Visibility 10.0 miles
Clouds Few 4000 ft
Scattered Clouds 6000 ft
Scattered Clouds 10000 ft
Scattered Clouds 25000 ft
Heat Index 103 °F
Dew Point 78 °F
Humidity 71%
Rainfall 0.00 in
Snow Depth Not available.
5:52 AM 7:57 PM
Last Quarter, 42% visible
METAR KBNA 271553Z 21003KT 10SM FEW040 SCT060 SCT100 SCT250 31/23 A3002 RMK AO2 SLP157 T03060228

10-Day Weather Forecast

Almanac

Astronomy

Jul. 27, 2016 Rise Set
Actual Time
Civil Twilight
Nautical Twilight
Astronomical Twilight
Moon
Length of Visible Light
Length of Day
Tomorrow will be .
, % of the Moon is Illuminated

Today's Extremes

State Highs State Lows

Community

WunderPhotos

Upload Photos

1,927,880 photos uploaded!

WunderBlog® & News

Nearby

Air Quality

  Air Quality AQ Index Pollutant
Not available.

Snow Depth

Station Depth Elevation

Earthquake Activity

City Distance Mag. Time & Date
Minimum magnitude displayed is 2.5.

Coastal Water Temperatures

Place Temperature

Stations

Nearby Weather Stations

Station Location Temp. Windchill Dew Point Humidity Wind Precip. Elev Updated Type
                   

Watches & Warnings

There are currently no watches in effect.